Time;durP1;ratioP1;P1;durP2;ratioP2;P2;SDS_P1;SDS_P2;PMS_P1;PMS_P2;Temp;Humidity;BMP_temperature;BMP_pressure;BME280_temperature;BME280_humidity;BME280_pressure;Samples;Min_cycle;Max_cycle;Signal;HPM_P1;HPM_P2
2022/08/13 00:01:13;;;;;;;20.65;10.60;;;;;;;21.01;100.00;100188.00;1755338;81;21062;-68
2022/08/13 00:03:40;;;;;;;13.93;10.13;;;;;;;21.01;100.00;100189.34;1755990;81;21048;-68
2022/08/13 00:06:11;;;;;;;14.00;10.08;;;;;;;21.02;100.00;100187.50;1756073;81;21266;-68
2022/08/13 00:08:35;;;;;;;14.45;10.10;;;;;;;21.02;100.00;100185.67;1754677;81;21045;-68
2022/08/13 00:11:06;;;;;;;15.15;9.93;;;;;;;21.01;100.00;100173.77;1756294;81;21037;-68
2022/08/13 00:13:36;;;;;;;14.30;10.32;;;;;;;21.00;100.00;100170.22;1756012;81;21617;-68
2022/08/13 00:16:04;;;;;;;13.40;10.48;;;;;;;20.98;100.00;100158.80;1728128;81;21108;-68
2022/08/13 00:18:31;;;;;;;15.75;10.50;;;;;;;20.98;100.00;100152.11;1756062;81;21572;-69
2022/08/13 00:21:00;;;;;;;13.98;9.85;;;;;;;20.98;100.00;100149.44;1756034;81;21637;-69
2022/08/13 00:23:27;;;;;;;14.80;9.85;;;;;;;20.97;100.00;100129.47;1755690;81;21032;-69
2022/08/13 00:25:56;;;;;;;14.90;10.10;;;;;;;20.96;100.00;100124.61;1756192;81;21112;-68
2022/08/13 00:28:28;;;;;;;18.85;10.70;;;;;;;20.96;100.00;100123.27;1755833;81;21490;-68
2022/08/13 00:30:55;;;;;;;12.68;9.80;;;;;;;20.95;100.00;100120.21;1756138;81;21087;-68
2022/08/13 00:33:26;;;;;;;13.13;9.75;;;;;;;20.92;100.00;100119.13;1755679;81;21037;-68
2022/08/13 00:35:56;;;;;;;15.00;9.60;;;;;;;20.92;100.00;100121.81;1752084;81;21077;-68
2022/08/13 00:38:28;;;;;;;13.83;9.70;;;;;;;20.89;100.00;100135.42;1747945;81;21041;-69
2022/08/13 00:40:59;;;;;;;15.10;9.18;;;;;;;20.88;100.00;100133.73;1747937;82;21030;-68
2022/08/13 00:43:27;;;;;;;13.15;9.20;;;;;;;20.87;100.00;100132.04;1748343;81;21147;-68
2022/08/13 00:45:57;;;;;;;13.18;8.98;;;;;;;20.84;100.00;100125.58;1748216;82;21545;-69
2022/08/13 00:48:46;;;;;;;17.20;10.10;;;;;;;20.79;100.00;100123.27;1748510;82;21034;-68
2022/08/13 00:51:19;;;;;;;12.53;9.78;;;;;;;20.78;100.00;100116.72;1748111;81;21088;-68
2022/08/13 00:53:46;;;;;;;16.97;9.33;;;;;;;20.76;100.00;100114.65;1731394;81;21117;-68
2022/08/13 00:56:14;;;;;;;16.95;10.00;;;;;;;20.72;100.00;100116.70;1718268;83;21224;-69
2022/08/13 00:58:42;;;;;;;18.92;9.55;;;;;;;20.68;100.00;100112.10;1718251;83;21045;-69
2022/08/13 01:01:08;;;;;;;14.33;9.15;;;;;;;20.66;100.00;100114.05;1718260;83;21096;-68
2022/08/13 01:03:38;;;;;;;14.07;9.43;;;;;;;20.63;100.00;100108.07;1718321;83;21052;-67
2022/08/13 01:06:06;;;;;;;16.93;9.50;;;;;;;20.60;100.00;100115.02;1718215;83;21624;-68
2022/08/13 01:08:34;;;;;;;13.78;8.80;;;;;;;20.57;100.00;100112.56;1718438;83;21154;-68
2022/08/13 01:11:12;;;;;;;13.15;9.30;;;;;;;20.53;100.00;100107.43;1718346;83;21097;-68
2022/08/13 01:13:42;;;;;;;18.42;9.43;;;;;;;20.52;100.00;100103.06;1718535;83;21046;-68
2022/08/13 01:16:15;;;;;;;11.28;8.88;;;;;;;20.49;100.00;100106.45;1718461;83;21065;-67
2022/08/13 01:18:45;;;;;;;15.35;9.63;;;;;;;20.48;100.00;100110.12;1718086;83;21030;-68
2022/08/13 01:21:22;;;;;;;12.98;9.38;;;;;;;20.43;100.00;100107.80;1692622;83;21062;-69
2022/08/13 01:23:54;;;;;;;12.18;8.53;;;;;;;20.40;100.00;100104.01;1718443;82;21514;-68
2022/08/13 01:26:22;;;;;;;13.03;9.05;;;;;;;20.35;100.00;100108.03;1718395;83;21044;-68
2022/08/13 01:28:50;;;;;;;13.28;9.08;;;;;;;20.30;100.00;100116.41;1718414;83;21048;-68
2022/08/13 01:31:18;;;;;;;15.70;9.23;;;;;;;20.26;100.00;100117.12;1718272;83;21048;-69
2022/08/13 01:33:47;;;;;;;25.35;9.28;;;;;;;20.25;100.00;100120.78;1718531;83;21242;-68
2022/08/13 01:36:14;;;;;;;16.90;8.88;;;;;;;20.21;100.00;100127.33;1718178;83;21057;-68
2022/08/13 01:38:41;;;;;;;16.02;9.50;;;;;;;20.18;100.00;100124.06;1718126;83;21025;-68
2022/08/13 01:41:11;;;;;;;14.63;9.58;;;;;;;20.15;100.00;100119.77;1718179;83;21053;-68
2022/08/13 01:43:40;;;;;;;16.80;9.13;;;;;;;20.13;100.00;100113.72;1718318;83;21739;-69
2022/08/13 01:46:11;;;;;;;16.55;9.53;;;;;;;20.10;100.00;100111.27;1718383;83;21189;-68
2022/08/13 01:51:33;;;;;;;15.55;9.08;;;;;;;20.07;100.00;100107.01;1718434;83;21571;-68
2022/08/13 01:54:01;;;;;;;15.48;8.88;;;;;;;20.06;100.00;100112.47;1738259;82;21113;-68
2022/08/13 01:56:29;;;;;;;14.50;9.40;;;;;;;20.03;100.00;100102.86;1748153;82;21100;-69
2022/08/13 01:58:59;;;;;;;14.55;8.95;;;;;;;20.04;100.00;100106.41;1748025;81;21490;-69
2022/08/13 02:01:28;;;;;;;13.93;9.40;;;;;;;20.01;100.00;100110.14;1747703;81;21045;-69
2022/08/13 02:03:56;;;;;;;17.60;8.48;;;;;;;20.00;100.00;100110.28;1748178;82;21113;-70
2022/08/13 02:06:29;;;;;;;12.20;9.23;;;;;;;19.98;100.00;100108.20;1748297;82;21073;-68
2022/08/13 02:09:00;;;;;;;16.20;8.85;;;;;;;20.00;100.00;100100.92;1748171;82;21068;-69
2022/08/13 02:11:29;;;;;;;13.98;8.80;;;;;;;20.00;100.00;100099.59;1748600;82;21092;-69
2022/08/13 02:13:57;;;;;;;15.43;9.70;;;;;;;20.00;100.00;100094.25;1748103;82;21037;-68
2022/08/13 02:16:23;;;;;;;14.80;8.98;;;;;;;19.99;100.00;100092.52;1748497;82;22172;-69
2022/08/13 02:18:52;;;;;;;22.10;8.53;;;;;;;20.00;100.00;100087.56;1696655;82;21022;-68
2022/08/13 02:21:22;;;;;;;14.07;8.40;;;;;;;20.04;100.00;100099.23;1748183;82;21045;-69
2022/08/13 02:23:57;;;;;;;12.63;8.90;;;;;;;20.04;100.00;100097.05;1748367;82;21116;-67
2022/08/13 02:26:27;;;;;;;17.42;9.50;;;;;;;20.07;100.00;100088.79;1747827;82;21010;-68
2022/08/13 02:28:54;;;;;;;17.98;9.35;;;;;;;20.08;100.00;100089.14;1748275;82;21037;-69
2022/08/13 02:31:22;;;;;;;15.58;9.00;;;;;;;20.05;100.00;100081.37;1747977;82;21010;-68
2022/08/13 02:33:48;;;;;;;14.25;9.55;;;;;;;20.04;100.00;100085.88;1748617;82;21108;-69
2022/08/13 02:36:16;;;;;;;17.90;9.23;;;;;;;20.02;100.00;100086.97;1743493;81;21305;-68
2022/08/13 02:38:43;;;;;;;19.73;8.95;;;;;;;19.97;100.00;100078.42;1734105;82;21058;-69
2022/08/13 02:43:57;;;;;;;17.87;9.18;;;;;;;19.86;100.00;100074.77;1734248;82;21070;-69
2022/08/13 02:46:25;;;;;;;14.87;9.38;;;;;;;19.77;100.00;100071.47;1734326;82;21518;-69
2022/08/13 02:48:58;;;;;;;17.17;9.60;;;;;;;19.69;100.00;100065.84;1734586;82;21152;-69
2022/08/13 02:51:23;;;;;;;;;;;;;;;19.61;100.00;100063.73;1736691;81;21036;-69
2022/08/13 02:53:52;;;;;;;22.35;10.18;;;;;;;19.52;100.00;100072.92;1734441;82;20454;-70
2022/08/13 02:56:23;;;;;;;17.60;10.40;;;;;;;19.44;100.00;100061.00;1734205;82;21542;-70
2022/08/13 02:58:51;;;;;;;21.15;10.70;;;;;;;19.38;100.00;100057.94;1734537;81;21015;-70
2022/08/13 03:01:18;;;;;;;17.45;10.35;;;;;;;19.27;100.00;100054.73;1734073;82;21131;-69
2022/08/13 03:03:44;;;;;;;17.45;9.78;;;;;;;19.22;100.00;100046.22;1734049;82;21005;-69
2022/08/13 03:06:11;;;;;;;21.35;11.00;;;;;;;19.18;100.00;100044.24;1734686;82;21057;-69
2022/08/13 03:08:37;;;;;;;21.82;11.15;;;;;;;19.12;100.00;100034.50;1734328;82;21018;-67
2022/08/13 03:11:05;;;;;;;24.90;10.90;;;;;;;19.03;100.00;100051.58;1734546;82;21019;-69
2022/08/13 03:13:37;;;;;;;17.00;10.60;;;;;;;18.97;100.00;100037.34;1734397;82;21132;-70
2022/08/13 03:16:06;;;;;;;17.37;10.20;;;;;;;18.94;100.00;100036.73;1734389;81;21077;-68
2022/08/13 03:18:33;;;;;;;14.40;9.20;;;;;;;18.93;100.00;100041.68;1734279;82;21082;-69
2022/08/13 03:21:00;;;;;;;16.23;10.72;;;;;;;18.92;100.00;100039.50;1734433;82;21042;-69
2022/08/13 03:23:29;;;;;;;16.32;10.68;;;;;;;18.90;100.00;100037.42;1734253;82;21042;-69
2022/08/13 03:25:57;;;;;;;20.08;9.80;;;;;;;18.88;100.00;100035.84;1734366;82;21155;-68
2022/08/13 03:28:23;;;;;;;19.57;11.12;;;;;;;18.90;100.00;100045.43;1734618;82;21026;-67
2022/08/13 03:30:52;;;;;;;21.35;11.60;;;;;;;18.89;100.00;100047.75;1734354;82;21538;-69
2022/08/13 03:33:18;;;;;;;16.37;10.72;;;;;;;18.90;100.00;100066.78;1734587;82;21042;-67
2022/08/13 03:35:46;;;;;;;17.07;10.23;;;;;;;18.88;100.00;100071.37;1734393;82;21565;-69
2022/08/13 03:38:15;;;;;;;18.98;11.55;;;;;;;18.92;100.00;100062.19;1742507;81;21111;-70
2022/08/13 03:43:27;;;;;;;23.60;11.45;;;;;;;18.95;100.00;100053.09;1742773;82;21089;-68
2022/08/13 03:45:54;;;;;;;19.35;11.97;;;;;;;18.95;100.00;100043.27;1742537;82;21002;-70
2022/08/13 03:48:21;;;;;;;18.67;12.28;;;;;;;18.96;100.00;100044.15;1742802;82;22285;-69
2022/08/13 03:50:48;;;;;;;22.85;12.60;;;;;;;18.97;100.00;100054.69;1742645;82;21197;-69
2022/08/13 03:53:23;;;;;;;26.37;13.20;;;;;;;18.98;100.00;100036.39;1742229;82;21014;-71
2022/08/13 03:55:49;;;;;;;23.92;12.43;;;;;;;18.94;100.00;100042.91;1741653;82;21065;-69
2022/08/13 03:58:15;;;;;;;22.13;12.00;;;;;;;18.94;100.00;100053.59;1742207;82;21550;-69
2022/08/13 04:00:47;;;;;;;17.15;10.45;;;;;;;18.91;100.00;100048.48;1742635;82;21554;-69
2022/08/13 04:03:23;;;;;;;17.98;11.20;;;;;;;18.91;100.00;100054.28;1742327;82;21527;-70
2022/08/13 04:05:58;;;;;;;15.48;10.40;;;;;;;18.92;100.00;100068.02;1742434;82;21062;-71
2022/08/13 04:08:29;;;;;;;22.62;11.38;;;;;;;18.93;100.00;100071.03;1741417;82;21001;-68
2022/08/13 04:10:57;;;;;;;21.35;10.32;;;;;;;18.95;100.00;100081.97;1742337;82;21049;-69
2022/08/13 04:13:25;;;;;;;21.90;10.78;;;;;;;19.00;100.00;100117.66;1742404;82;21026;-68
2022/08/13 04:15:54;;;;;;;17.98;11.53;;;;;;;19.02;100.00;100117.91;1742735;82;21771;-68
2022/08/13 04:18:23;;;;;;;;;;;;;;;19.02;100.00;100117.91;1744975;82;21069;-69
2022/08/13 04:20:54;;;;;;;19.00;11.57;;;;;;;19.04;100.00;100127.16;1742576;82;20238;-69
2022/08/13 04:23:18;;;;;;;18.25;10.82;;;;;;;19.06;100.00;100144.76;1741927;82;21570;-70
2022/08/13 04:25:46;;;;;;;20.50;11.40;;;;;;;19.05;100.00;100144.41;1742253;82;21061;-68
2022/08/13 04:28:15;;;;;;;16.90;11.57;;;;;;;19.05;100.00;100140.40;1742254;82;21535;-71
2022/08/13 04:30:42;;;;;;;23.05;12.07;;;;;;;19.06;100.00;100149.25;1712797;82;21053;-68
2022/08/13 04:33:11;;;;;;;20.00;11.53;;;;;;;19.07;100.00;100138.48;1742513;82;21037;-69
2022/08/13 04:35:39;;;;;;;22.90;12.15;;;;;;;19.07;100.00;100130.92;1742191;82;21549;-68
2022/08/13 04:38:06;;;;;;;18.82;11.65;;;;;;;19.10;100.00;100125.88;1715201;82;21600;-68
2022/08/13 04:40:36;;;;;;;18.20;11.80;;;;;;;19.13;100.00;100120.30;1744468;82;21141;-69
2022/08/13 04:43:03;;;;;;;23.75;12.10;;;;;;;19.15;100.00;100118.37;1715289;82;21069;-68
2022/08/13 04:45:31;;;;;;;17.20;11.28;;;;;;;19.20;100.00;100105.53;1744552;82;21585;-69
2022/08/13 04:48:03;;;;;;;19.25;11.93;;;;;;;19.27;100.00;100104.97;1744707;82;21086;-69
2022/08/13 04:50:32;;;;;;;16.95;11.25;;;;;;;19.39;100.00;100105.88;1744426;82;21098;-70
2022/08/13 04:53:00;;;;;;;23.95;11.80;;;;;;;19.47;100.00;100102.66;1733637;82;21170;-68
2022/08/13 04:55:27;;;;;;;19.05;12.30;;;;;;;19.50;100.00;100099.25;1699102;83;21083;-68
2022/08/13 04:57:53;;;;;;;18.40;12.63;;;;;;;19.58;100.00;100093.81;1699349;84;21031;-69
2022/08/13 05:00:24;;;;;;;19.02;12.20;;;;;;;19.64;100.00;100098.70;1699575;84;21076;-69
2022/08/13 05:02:49;;;;;;;18.65;11.97;;;;;;;19.70;100.00;100100.95;1699240;83;21043;-69
2022/08/13 05:05:16;;;;;;;20.70;11.60;;;;;;;19.76;100.00;100099.17;1699526;83;21639;-69
2022/08/13 05:07:47;;;;;;;24.98;11.95;;;;;;;19.76;100.00;100104.51;1699269;84;21032;-69
2022/08/13 05:10:11;;;;;;;17.15;12.28;;;;;;;19.78;100.00;100104.38;1699468;83;22050;-70
2022/08/13 05:12:38;;;;;;;17.90;12.07;;;;;;;19.80;100.00;100096.60;1699236;84;21066;-69
2022/08/13 05:15:08;;;;;;;17.10;11.73;;;;;;;19.78;100.00;100086.52;1699617;83;21133;-68
2022/08/13 05:17:35;;;;;;;18.52;12.23;;;;;;;19.76;100.00;100075.12;1698887;83;21146;-69
2022/08/13 05:20:01;;;;;;;25.02;12.37;;;;;;;19.76;100.00;100072.45;1699084;84;21027;-70
2022/08/13 05:22:29;;;;;;;20.82;12.70;;;;;;;19.76;100.00;100077.80;1699197;84;21087;-71
2022/08/13 05:24:56;;;;;;;20.52;12.75;;;;;;;19.81;100.00;100076.95;1699255;84;21032;-69
2022/08/13 05:27:23;;;;;;;26.00;12.70;;;;;;;19.83;100.00;100075.02;1699360;84;21646;-68
2022/08/13 05:29:50;;;;;;;18.98;13.08;;;;;;;19.89;100.00;100069.17;1699285;84;21793;-69
2022/08/13 05:32:17;;;;;;;19.55;13.22;;;;;;;19.99;100.00;100062.66;1699174;84;21127;-68
2022/08/13 05:34:43;;;;;;;18.07;12.75;;;;;;;20.11;100.00;100049.67;1699265;84;21556;-69
2022/08/13 05:37:16;;;;;;;23.25;11.95;;;;;;;20.26;100.00;100055.62;1698696;83;21047;-69
2022/08/13 05:39:39;;;;;;;18.52;11.65;;;;;;;20.37;100.00;100043.24;1696977;84;21099;-70
2022/08/13 05:42:06;;;;;;;17.75;12.05;;;;;;;20.51;100.00;100045.17;1697454;84;21600;-68
2022/08/13 05:44:33;;;;;;;18.90;12.82;;;;;;;20.65;100.00;100044.09;1697577;84;21430;-69
2022/08/13 05:47:00;;;;;;;16.40;11.12;;;;;;;20.79;100.00;100055.52;1697568;83;21544;-68
2022/08/13 05:49:27;;;;;;;23.35;12.60;;;;;;;20.90;100.00;100044.30;1697638;84;21039;-68
2022/08/13 05:51:53;;;;;;;20.88;12.73;;;;;;;21.07;100.00;100050.97;1697611;84;21050;-68
2022/08/13 05:54:19;;;;;;;19.23;12.18;;;;;;;21.32;100.00;100043.56;1733836;82;21269;-69
2022/08/13 05:56:46;;;;;;;21.50;12.15;;;;;;;21.52;100.00;100048.13;1742055;82;20995;-70
2022/08/13 06:04:29;;;;;;;18.48;11.12;;;;;;;21.85;100.00;100048.92;1742498;82;21422;-69
2022/08/13 06:06:56;;;;;;;16.60;11.43;;;;;;;21.78;100.00;100049.09;1742235;82;21741;-68
2022/08/13 06:09:25;;;;;;;18.92;11.83;;;;;;;21.79;100.00;100055.67;1742104;82;20982;-68
2022/08/13 06:11:51;;;;;;;14.18;10.65;;;;;;;21.80;100.00;100057.86;1742328;82;21078;-67
2022/08/13 06:14:22;;;;;;;18.82;11.60;;;;;;;21.79;100.00;100053.48;1742530;82;20990;-68
2022/08/13 06:16:52;;;;;;;14.53;11.12;;;;;;;21.84;100.00;100063.33;1742448;82;21030;-69
2022/08/13 06:19:24;;;;;;;18.05;11.08;;;;;;;21.87;100.00;100045.62;1742496;82;21226;-68
2022/08/13 06:21:51;;;;;;;17.62;11.05;;;;;;;21.92;100.00;100055.45;1741869;82;21612;-68
2022/08/13 06:24:17;;;;;;;17.42;11.10;;;;;;;21.96;100.00;100055.56;1742255;82;21561;-67
2022/08/13 06:26:44;;;;;;;17.48;11.28;;;;;;;21.96;100.00;100054.22;1742176;81;21544;-68
2022/08/13 06:29:10;;;;;;;20.37;11.90;;;;;;;21.99;100.00;100066.05;1742180;82;21641;-69
2022/08/13 06:31:38;;;;;;;17.55;11.40;;;;;;;22.00;100.00;100055.66;1742353;82;21722;-69
2022/08/13 06:34:09;;;;;;;17.70;11.40;;;;;;;22.04;100.00;100060.75;1742311;82;21025;-69
2022/08/13 06:36:34;;;;;;;17.25;10.75;;;;;;;22.09;100.00;100059.89;1742186;82;21065;-69
2022/08/13 06:39:03;;;;;;;17.20;10.75;;;;;;;22.16;100.00;100057.03;1702241;81;21104;-70
2022/08/13 06:41:30;;;;;;;27.67;11.68;;;;;;;22.20;100.00;100058.44;1755799;81;21053;-69
2022/08/13 06:43:56;;;;;;;20.88;11.93;;;;;;;22.29;100.00;100052.80;1755813;81;21206;-68
2022/08/13 06:46:27;;;;;;;17.48;11.30;;;;;;;22.49;100.00;100053.75;1756035;81;21093;-69
2022/08/13 06:49:02;;;;;;;20.85;10.80;;;;;;;22.65;100.00;100055.42;1755952;81;21096;-69
2022/08/13 06:52:32;;;;;;;14.83;11.03;;;;;;;22.84;100.00;100055.97;1794535;79;22865;-70
2022/08/13 06:54:59;;;;;;;20.10;11.20;;;;;;;23.03;100.00;100052.53;1757801;80;21113;-68
2022/08/13 06:57:25;;;;;;;19.98;11.65;;;;;;;23.19;100.00;100036.71;1740087;81;21210;-69
2022/08/13 06:59:54;;;;;;;15.98;11.43;;;;;;;23.19;100.00;100043.42;1745189;81;22125;-69
2022/08/13 07:02:21;;;;;;;16.20;11.22;;;;;;;23.10;100.00;100050.98;1742574;81;21112;-69
2022/08/13 07:04:48;;;;;;;16.25;10.88;;;;;;;22.98;100.00;100057.41;1738933;81;21322;-70
2022/08/13 07:07:17;;;;;;;22.67;11.48;;;;;;;22.92;100.00;100064.70;1760046;80;21029;-68
2022/08/13 07:09:45;;;;;;;19.82;11.48;;;;;;;22.85;100.00;100068.92;1758798;80;21944;-70
2022/08/13 07:12:15;;;;;;;21.80;11.97;;;;;;;22.76;100.00;100068.75;1759093;80;21015;-68
2022/08/13 07:14:43;;;;;;;26.00;12.25;;;;;;;22.67;100.00;100064.20;1760146;80;21003;-69
2022/08/13 07:17:10;;;;;;;17.45;12.07;;;;;;;22.61;100.00;100060.23;1758700;80;21033;-69
2022/08/13 07:19:37;;;;;;;19.67;12.78;;;;;;;22.56;100.00;100046.84;1758905;80;21049;-70
2022/08/13 07:22:05;;;;;;;20.52;13.22;;;;;;;22.48;100.00;100065.48;1758770;80;21737;-69
2022/08/13 07:24:32;;;;;;;17.17;12.60;;;;;;;22.35;100.00;100057.14;1759055;80;21052;-70
2022/08/13 07:27:04;;;;;;;18.37;12.55;;;;;;;22.23;100.00;100050.17;1759744;80;21583;-68
2022/08/13 07:29:35;;;;;;;22.45;13.38;;;;;;;22.23;100.00;100035.42;1744434;81;21107;-69
2022/08/13 07:32:03;;;;;;;16.97;12.70;;;;;;;22.36;100.00;100034.72;1723763;82;21593;-69
2022/08/13 07:34:32;;;;;;;20.12;12.47;;;;;;;22.56;100.00;100028.06;1724882;82;22239;-69
2022/08/13 07:36:59;;;;;;;19.05;12.37;;;;;;;22.83;100.00;100029.62;1727032;82;21065;-69
2022/08/13 07:39:26;;;;;;;21.33;12.47;;;;;;;23.00;100.00;100029.95;1725379;82;21093;-68
2022/08/13 07:41:52;;;;;;;18.77;13.08;;;;;;;23.10;100.00;100029.96;1727229;82;21596;-68
2022/08/13 07:44:21;;;;;;;22.07;12.70;;;;;;;23.11;100.00;100045.95;1723872;82;21597;-70
2022/08/13 07:46:51;;;;;;;21.95;12.50;;;;;;;23.08;100.00;100044.90;1727468;82;21247;-69
2022/08/13 07:49:20;;;;;;;;;;;;;;;22.99;100.00;100049.77;1728172;82;21014;-69
2022/08/13 07:51:47;;;;;;;15.93;12.80;;;;;;;22.95;100.00;100057.20;1728400;82;20467;-69
2022/08/13 07:54:15;;;;;;;22.77;12.68;;;;;;;22.85;100.00;100063.55;1719916;82;21085;-70
2022/08/13 07:56:47;;;;;;;21.25;12.78;;;;;;;22.79;100.00;100057.72;1710859;82;21179;-69
2022/08/13 07:59:12;;;;;;;22.90;12.65;;;;;;;22.77;100.00;100061.53;1712335;82;21253;-69
2022/08/13 08:01:47;;;;;;;20.60;12.47;;;;;;;22.73;100.00;100058.30;1714644;83;21537;-70
2022/08/13 08:04:15;;;;;;;19.25;13.22;;;;;;;22.76;100.00;100056.66;1714879;82;21038;-70
2022/08/13 08:06:47;;;;;;;21.85;12.75;;;;;;;22.91;100.00;100053.58;1715578;82;21210;-70
2022/08/13 08:09:22;;;;;;;23.32;12.98;;;;;;;23.16;100.00;100046.38;1712195;82;21075;-70
2022/08/13 08:14:37;;;;;;;15.93;11.95;;;;;;;23.78;100.00;100048.80;1709706;82;21086;-70
2022/08/13 08:17:05;;;;;;;22.40;11.95;;;;;;;24.07;100.00;100033.45;1705740;82;21801;-69
2022/08/13 08:19:31;;;;;;;18.62;12.70;;;;;;;24.19;100.00;100023.86;1714105;82;21124;-69
2022/08/13 08:21:59;;;;;;;19.00;12.53;;;;;;;24.28;100.00;100021.63;1720643;83;21075;-71
2022/08/13 08:24:32;;;;;;;19.07;12.55;;;;;;;24.38;100.00;100014.86;1705811;82;21105;-69
2022/08/13 08:27:05;;;;;;;19.50;11.88;;;;;;;24.44;100.00;100015.11;1713732;82;21064;-70
2022/08/13 08:29:33;;;;;;;18.30;12.15;;;;;;;24.64;100.00;100016.37;1710140;82;21064;-69
2022/08/13 08:32:04;;;;;;;20.77;12.93;;;;;;;24.80;100.00;100000.44;1707999;82;21087;-69
2022/08/13 08:34:30;;;;;;;21.20;12.18;;;;;;;25.00;100.00;100000.28;1711086;82;21099;-70
2022/08/13 08:36:56;;;;;;;18.80;11.50;;;;;;;25.31;100.00;99998.94;1720666;82;21224;-70
2022/08/13 08:43:00;;;;;;;20.90;11.60;;;;;;;25.79;100.00;100008.05;1715838;82;22029;-70
2022/08/13 08:44:43;;;;;;;23.50;11.93;;;;;;;25.83;99.45;100008.08;1706328;83;21625;-71
2022/08/13 08:47:10;;;;;;;19.75;12.00;;;;;;;25.69;98.37;100010.34;1718456;83;21589;-70
2022/08/13 08:49:39;;;;;;;20.27;12.88;;;;;;;25.61;97.88;100008.95;1707894;82;21183;-71
2022/08/13 08:52:07;;;;;;;21.07;12.93;;;;;;;25.46;99.95;100025.33;1714800;82;21056;-69
2022/08/13 08:54:34;;;;;;;22.70;13.18;;;;;;;25.32;100.00;100012.74;1711995;82;21092;-69
2022/08/13 08:57:01;;;;;;;21.02;12.53;;;;;;;25.24;100.00;100011.84;1728764;81;21080;-69
2022/08/13 08:59:32;;;;;;;20.25;12.95;;;;;;;25.17;100.00;100014.75;1731837;81;21040;-70
2022/08/13 09:01:59;;;;;;;22.77;13.13;;;;;;;25.09;100.00;100019.57;1727298;81;21219;-70
2022/08/13 09:04:28;;;;;;;21.27;12.85;;;;;;;24.97;100.00;100018.11;1728202;81;21048;-69
2022/08/13 09:06:58;;;;;;;17.85;12.80;;;;;;;24.99;100.00;100006.69;1726358;82;21616;-70
2022/08/13 09:09:26;;;;;;;;;;;;;;;25.14;100.00;100005.13;1731937;81;21076;-70
2022/08/13 09:11:55;;;;;;;17.27;13.20;;;;;;;25.36;100.00;99998.98;1728351;81;20169;-68
2022/08/13 09:14:26;;;;;;;19.77;13.48;;;;;;;25.59;100.00;99996.63;1726230;81;22260;-70
2022/08/13 09:16:57;;;;;;;22.10;12.88;;;;;;;25.82;99.45;99993.76;1726432;82;21640;-70
2022/08/13 09:19:24;;;;;;;25.88;13.30;;;;;;;26.07;99.08;99994.78;1727055;81;21104;-71
2022/08/13 09:21:51;;;;;;;23.80;12.95;;;;;;;26.39;96.30;99987.86;1728588;81;21532;-70
2022/08/13 09:24:24;;;;;;;26.62;13.30;;;;;;;26.63;93.24;99982.23;1729548;82;21052;-72
2022/08/13 09:26:47;;;;;;;16.52;12.35;;;;;;;26.82;92.48;99985.98;1728691;81;21862;-69
2022/08/13 09:29:17;;;;;;;16.23;11.90;;;;;;;27.02;90.82;99984.34;1728959;81;21064;-69
2022/08/13 09:31:44;;;;;;;19.40;12.65;;;;;;;27.13;87.71;99977.27;1725530;81;21568;-69
2022/08/13 09:34:12;;;;;;;20.68;12.33;;;;;;;27.30;87.19;99980.84;1729157;81;21090;-69
2022/08/13 09:36:38;;;;;;;20.35;11.35;;;;;;;27.56;85.31;99984.22;1727375;81;21056;-69
2022/08/13 09:39:05;;;;;;;18.30;11.57;;;;;;;27.90;84.96;99970.16;1726388;81;21969;-72
2022/08/13 09:41:51;;;;;;;18.48;10.78;;;;;;;28.32;81.53;99963.09;1724450;82;22061;-71
2022/08/13 09:44:13;;;;;;;;;;;;;;;28.70;76.53;99955.64;1734429;81;21093;-69
2022/08/13 09:46:40;;;;;;;14.47;9.35;;;;;;;29.09;76.50;99952.02;1704637;82;20214;-70
2022/08/13 09:49:08;;;;;;;19.23;10.00;;;;;;;29.40;72.26;99946.48;1726656;81;21033;-70
2022/08/13 09:51:35;;;;;;;17.70;10.15;;;;;;;29.41;71.00;99954.97;1728811;81;21885;-70
2022/08/13 09:54:05;;;;;;;17.60;9.73;;;;;;;29.55;66.69;99953.31;1719076;82;21024;-71
2022/08/13 09:56:37;;;;;;;15.85;10.15;;;;;;;29.74;66.09;99939.22;1705229;82;21196;-69
2022/08/13 09:59:01;;;;;;;15.95;8.98;;;;;;;29.81;64.78;99961.88;1705791;82;21039;-69
2022/08/13 10:01:28;;;;;;;15.83;9.15;;;;;;;29.56;64.27;99948.20;1706004;82;21181;-69
2022/08/13 10:03:56;;;;;;;16.32;9.68;;;;;;;29.44;65.04;99954.06;1705942;82;21275;-70
2022/08/13 10:06:23;;;;;;;16.48;10.28;;;;;;;29.35;64.27;99952.45;1707746;82;21068;-71
2022/08/13 10:08:50;;;;;;;17.52;9.83;;;;;;;29.31;65.05;99952.52;1715619;82;21534;-70
2022/08/13 10:11:17;;;;;;;17.12;10.20;;;;;;;29.33;66.16;99945.02;1717112;82;21704;-69
2022/08/13 10:13:44;;;;;;;13.68;10.00;;;;;;;29.33;66.16;99945.02;1712711;82;21579;-70
2022/08/13 10:16:11;;;;;;;16.82;10.23;;;;;;;29.38;66.02;99939.91;1706071;82;21165;-70
2022/08/13 10:18:37;;;;;;;18.32;10.65;;;;;;;29.35;65.45;99941.61;1715392;82;21640;-70
2022/08/13 10:21:04;;;;;;;12.55;10.10;;;;;;;29.30;66.96;99941.32;1708744;82;21094;-71
2022/08/13 10:23:33;;;;;;;15.40;10.08;;;;;;;29.36;64.89;99935.17;1720323;83;21061;-69
2022/08/13 10:26:00;;;;;;;13.72;10.08;;;;;;;29.54;65.27;99932.62;1721804;82;21037;-70
2022/08/13 10:28:34;;;;;;;20.82;10.25;;;;;;;29.89;64.35;99925.16;1712844;82;21172;-69
2022/08/13 10:31:03;;;;;;;15.55;9.68;;;;;;;30.17;62.61;99927.19;1718708;83;21017;-70
2022/08/13 10:33:32;;;;;;;18.33;10.03;;;;;;;30.26;60.51;99931.52;1707241;82;21059;-71
2022/08/13 10:35:58;;;;;;;14.65;9.23;;;;;;;30.04;60.75;99933.80;1718990;82;21049;-71
2022/08/13 10:38:26;;;;;;;15.15;9.18;;;;;;;29.95;60.79;99915.92;1719094;83;21057;-69
2022/08/13 10:40:57;;;;;;;16.30;9.48;;;;;;;29.95;60.79;99915.92;1715265;82;21226;-69
2022/08/13 10:43:24;;;;;;;18.10;10.30;;;;;;;30.01;60.95;99910.59;1717939;82;21128;-71
2022/08/13 10:45:56;;;;;;;16.05;9.50;;;;;;;30.10;59.65;99915.41;1687193;84;21066;-70
2022/08/13 10:48:21;;;;;;;15.72;9.78;;;;;;;30.19;60.18;99918.34;1673379;84;21614;-71
2022/08/13 10:50:48;;;;;;;15.53;10.03;;;;;;;30.39;59.63;99914.56;1672752;85;21016;-69
2022/08/13 10:53:55;;;;;;;20.48;10.08;;;;;;;30.56;59.59;99911.08;1682949;84;21290;-70
2022/08/13 10:55:43;;;;;;;15.45;9.90;;;;;;;30.72;59.16;99910.83;1696819;84;21125;-70
2022/08/13 10:58:13;;;;;;;21.75;10.80;;;;;;;30.86;55.43;99902.85;1707457;83;21120;-70
2022/08/13 11:00:38;;;;;;;13.55;9.50;;;;;;;31.01;54.82;99900.88;1684977;84;21531;-70
2022/08/13 11:03:05;;;;;;;16.85;9.38;;;;;;;31.16;53.85;99900.81;1687429;84;21149;-70
2022/08/13 11:05:31;;;;;;;21.20;9.35;;;;;;;31.31;54.37;99903.43;1692190;84;21656;-69
2022/08/13 11:07:58;;;;;;;16.23;9.78;;;;;;;31.46;53.06;99895.22;1688514;84;21077;-70
2022/08/13 11:10:25;;;;;;;15.83;9.10;;;;;;;31.45;53.91;99901.19;1687977;84;21034;-71
2022/08/13 11:12:52;;;;;;;18.75;9.50;;;;;;;31.46;54.21;99905.58;1687979;84;21077;-70
2022/08/13 11:15:22;;;;;;;18.10;9.80;;;;;;;31.44;53.26;99898.12;1702577;83;21072;-71
2022/08/13 11:17:50;;;;;;;15.90;9.30;;;;;;;31.51;51.90;99883.21;1704529;84;21134;-69
2022/08/13 11:20:19;;;;;;;15.25;9.05;;;;;;;31.39;52.13;99900.58;1700395;84;21069;-70
2022/08/13 11:22:48;;;;;;;17.07;9.50;;;;;;;31.24;53.39;99892.49;1700831;84;21053;-70
2022/08/13 11:25:14;;;;;;;17.12;8.48;;;;;;;31.14;53.15;99886.05;1687493;84;21177;-71
2022/08/13 11:27:40;;;;;;;16.85;9.43;;;;;;;31.07;52.71;99876.99;1713651;82;21114;-70
2022/08/13 11:30:09;;;;;;;18.35;9.50;;;;;;;30.92;53.16;99880.30;1691216;84;21497;-70
2022/08/13 11:32:36;;;;;;;14.00;9.43;;;;;;;30.87;53.86;99884.13;1692366;84;21049;-72
2022/08/13 11:35:05;;;;;;;17.48;9.48;;;;;;;30.85;54.66;99879.40;1692793;84;21586;-71